Time;durP1;ratioP1;P1;durP2;ratioP2;P2;SDS_P1;SDS_P2;PMS_P1;PMS_P2;Temp;Humidity;BMP_temperature;BMP_pressure;BME280_temperature;BME280_humidity;BME280_pressure;Samples;Min_cycle;Max_cycle;Signal;HPM_P1;HPM_P2
2022/04/18 00:00:36;;;;;;;4.22;3.13;;;;;;;4.66;57.73;96812.06;4960428;28;20562;-67
2022/04/18 00:03:03;;;;;;;4.30;2.97;;;;;;;4.58;58.10;96808.28;4969256;28;20492;-66
2022/04/18 00:05:32;;;;;;;5.82;3.22;;;;;;;4.58;58.33;96807.47;4974895;28;20038;-66
2022/04/18 00:07:58;;;;;;;3.42;2.83;;;;;;;4.49;58.59;96815.66;4961441;28;20046;-66
2022/04/18 00:10:23;;;;;;;6.55;3.15;;;;;;;4.50;58.51;96808.28;4956233;28;20412;-66
2022/04/18 00:12:49;;;;;;;5.72;3.10;;;;;;;4.44;59.02;96804.19;4957488;28;20101;-66
2022/04/18 00:15:14;;;;;;;5.82;3.20;;;;;;;4.32;59.41;96799.41;4952877;28;20066;-66
2022/04/18 00:17:40;;;;;;;7.00;2.83;;;;;;;4.42;59.08;96788.22;4961183;28;20045;-66
2022/04/18 00:20:06;;;;;;;4.85;3.35;;;;;;;4.39;59.16;96794.28;4955919;28;20056;-66
2022/04/18 00:22:32;;;;;;;3.45;2.85;;;;;;;4.40;58.81;96793.19;4963426;28;20046;-66
2022/04/18 00:24:57;;;;;;;4.65;3.15;;;;;;;4.38;59.07;96790.78;4964816;28;20065;-66
2022/04/18 00:27:23;;;;;;;4.38;3.30;;;;;;;4.37;59.14;96785.69;4958849;28;20153;-67
2022/04/18 00:29:49;;;;;;;4.70;3.25;;;;;;;4.38;58.94;96785.38;4963724;28;20039;-66
2022/04/18 00:32:16;;;;;;;6.82;3.08;;;;;;;4.20;59.68;96786.53;4959688;28;20551;-66
2022/04/18 00:34:41;;;;;;;4.30;3.10;;;;;;;4.27;59.06;96772.47;4964220;28;20059;-66
2022/04/18 00:37:06;;;;;;;5.90;3.60;;;;;;;4.19;59.71;96768.66;4956786;28;20130;-67
2022/04/18 00:39:32;;;;;;;6.72;3.40;;;;;;;4.16;59.86;96767.41;4962623;28;20039;-66
2022/04/18 00:41:57;;;;;;;4.00;2.92;;;;;;;4.12;59.91;96758.31;4961275;28;20074;-66
2022/04/18 00:44:23;;;;;;;5.18;3.15;;;;;;;4.20;59.67;96762.13;4967870;28;20114;-63
2022/04/18 00:46:48;;;;;;;4.40;2.92;;;;;;;4.17;60.05;96762.78;4972307;28;20134;-65
2022/04/18 00:49:14;;;;;;;6.38;3.08;;;;;;;4.09;60.10;96763.59;4974059;28;20400;-65
2022/04/18 00:51:39;;;;;;;4.85;3.08;;;;;;;4.09;60.01;96750.84;4973522;28;20542;-66
2022/04/18 00:54:05;;;;;;;7.60;3.40;;;;;;;4.04;60.71;96753.72;4973847;28;20134;-65
2022/04/18 00:56:32;;;;;;;7.35;4.43;;;;;;;4.04;60.45;96748.31;4973082;28;20034;-66
2022/04/18 00:58:58;;;;;;;4.97;3.13;;;;;;;4.04;59.96;96764.56;4966571;28;20038;-65
2022/04/18 01:01:24;;;;;;;7.13;2.92;;;;;;;4.01;60.51;96752.44;4972651;28;20038;-65
2022/04/18 01:03:50;;;;;;;5.07;3.30;;;;;;;4.02;60.04;96755.97;4955365;28;20411;-65
2022/04/18 01:06:16;;;;;;;8.02;3.83;;;;;;;4.02;59.86;96751.34;4953770;28;20068;-65
2022/04/18 01:08:43;;;;;;;7.20;3.67;;;;;;;3.99;60.22;96748.47;4954444;28;20042;-65
2022/04/18 01:11:09;;;;;;;5.28;3.00;;;;;;;3.93;60.05;96737.00;4964685;28;20069;-65
2022/04/18 01:13:47;;;;;;;5.05;3.15;;;;;;;3.97;60.29;96745.28;4973385;28;20034;-65
2022/04/18 01:16:13;;;;;;;3.42;3.00;;;;;;;4.11;59.26;96745.91;4972783;28;20106;-65
2022/04/18 01:18:39;;;;;;;5.00;3.30;;;;;;;4.11;59.29;96747.81;4973599;28;20042;-65
2022/04/18 01:21:08;;;;;;;7.60;3.13;;;;;;;4.13;58.71;96737.44;4972212;28;20514;-65
2022/04/18 01:23:34;;;;;;;5.03;3.03;;;;;;;4.10;58.92;96743.50;4973227;28;20125;-65
2022/04/18 01:28:59;;;;;;;7.70;3.53;;;;;;;4.06;59.10;96724.38;4972046;28;20122;-66
2022/04/18 01:31:36;;;;;;;7.68;3.00;;;;;;;4.02;59.38;96731.56;4972146;28;20176;-65
2022/04/18 01:34:05;;;;;;;5.70;3.20;;;;;;;4.03;59.34;96727.72;4972399;28;20097;-65
2022/04/18 01:36:31;;;;;;;4.22;3.15;;;;;;;3.99;59.92;96727.59;4972989;28;20030;-66
2022/04/18 01:38:56;;;;;;;5.22;3.45;;;;;;;3.98;59.71;96717.06;4974438;28;20479;-66
2022/04/18 01:41:22;;;;;;;4.75;3.17;;;;;;;3.93;59.75;96712.63;4974570;28;20031;-67
2022/04/18 01:43:47;;;;;;;3.67;2.95;;;;;;;3.95;59.91;96710.38;4973416;28;20380;-66
2022/04/18 01:46:17;;;;;;;5.80;3.15;;;;;;;3.88;60.20;96715.50;4979937;28;20030;-65
2022/04/18 01:48:43;;;;;;;;;;;;;;;3.88;60.61;96715.50;4972120;28;20035;-66
2022/04/18 01:51:09;;;;;;;7.28;2.80;;;;;;;3.85;59.85;96712.63;4973348;28;19914;-66
2022/04/18 01:53:34;;;;;;;6.05;3.00;;;;;;;3.89;60.21;96713.56;4972829;28;20077;-65
2022/04/18 01:56:00;;;;;;;6.30;3.20;;;;;;;3.90;60.18;96713.25;4972211;28;20034;-66
2022/04/18 01:58:25;;;;;;;5.88;3.15;;;;;;;3.87;60.23;96707.69;4972829;28;20400;-66
2022/04/18 02:00:51;;;;;;;7.28;3.03;;;;;;;3.86;60.57;96703.41;4972658;28;20031;-66
2022/04/18 02:03:17;;;;;;;5.57;3.35;;;;;;;3.89;60.04;96708.97;4972419;28;20042;-66
2022/04/18 02:05:43;;;;;;;6.15;3.30;;;;;;;3.83;60.15;96705.66;4969326;28;20034;-65
2022/04/18 02:08:09;;;;;;;7.82;3.15;;;;;;;3.81;60.90;96704.38;4953145;28;20038;-65
2022/04/18 02:10:34;;;;;;;7.60;3.75;;;;;;;3.78;60.92;96700.41;4953302;28;20045;-65
2022/04/18 02:13:00;;;;;;;5.95;3.40;;;;;;;3.68;61.32;96698.03;4953087;28;20042;-65
2022/04/18 02:15:25;;;;;;;5.00;3.45;;;;;;;3.68;61.45;96695.31;4952565;28;20039;-66
2022/04/18 02:17:51;;;;;;;8.00;3.10;;;;;;;3.63;61.21;96693.56;4954106;28;20067;-66
2022/04/18 02:20:16;;;;;;;5.72;3.05;;;;;;;3.78;60.73;96694.16;4954675;28;20039;-65
2022/04/18 02:22:41;;;;;;;5.00;2.90;;;;;;;3.67;61.25;96688.28;4954011;29;20058;-65
2022/04/18 02:25:08;;;;;;;6.97;3.67;;;;;;;3.76;61.05;96686.38;4955735;28;20116;-66
2022/04/18 02:27:34;;;;;;;6.57;2.92;;;;;;;3.89;60.23;96690.00;4954555;28;20031;-66
2022/04/18 02:29:59;;;;;;;5.63;3.10;;;;;;;3.84;60.71;96682.06;4954532;28;20039;-65
2022/04/18 02:35:09;;;;;;;5.28;3.65;;;;;;;3.78;60.47;96676.00;4952998;29;20046;-66
2022/04/18 02:37:35;;;;;;;5.38;3.92;;;;;;;3.74;61.36;96676.97;4951951;28;20420;-65
2022/04/18 02:40:00;;;;;;;4.63;3.10;;;;;;;3.73;61.41;96678.09;4952590;28;20046;-66
2022/04/18 02:42:26;;;;;;;5.05;3.45;;;;;;;3.68;61.38;96672.84;4952496;28;20051;-66
2022/04/18 02:44:52;;;;;;;5.32;2.90;;;;;;;3.66;62.10;96685.94;4966069;28;20109;-64
2022/04/18 02:47:17;;;;;;;6.18;3.03;;;;;;;3.72;61.54;96679.22;4971287;28;20105;-65
2022/04/18 02:49:43;;;;;;;6.07;3.17;;;;;;;3.75;61.04;96679.34;4971934;28;20039;-65
2022/04/18 02:52:08;;;;;;;9.32;3.33;;;;;;;3.78;61.05;96672.50;4970234;28;20134;-65
2022/04/18 02:54:33;;;;;;;6.35;3.10;;;;;;;3.78;61.06;96669.78;4971769;28;20042;-66
2022/04/18 02:56:59;;;;;;;5.53;3.55;;;;;;;3.73;61.67;96659.94;4971130;28;20038;-66
2022/04/18 02:59:24;;;;;;;6.05;3.28;;;;;;;3.72;61.45;96671.88;4971791;28;20030;-66
2022/04/18 03:01:49;;;;;;;5.00;3.30;;;;;;;3.73;61.38;96664.56;4971384;28;20078;-66
2022/04/18 03:04:15;;;;;;;6.22;3.58;;;;;;;3.66;62.09;96665.03;4970262;28;20372;-65
2022/04/18 03:06:40;;;;;;;6.07;3.95;;;;;;;3.62;62.23;96658.69;4970813;28;20030;-66
2022/04/18 03:09:06;;;;;;;4.85;3.13;;;;;;;3.65;61.78;96652.59;4971493;28;20602;-66
2022/04/18 03:11:31;;;;;;;6.05;3.40;;;;;;;3.64;62.11;96665.34;4971822;28;20659;-66
2022/04/18 03:13:57;;;;;;;4.25;3.33;;;;;;;3.54;62.47;96659.50;4971832;28;20031;-66
2022/04/18 03:16:23;;;;;;;6.03;3.40;;;;;;;3.52;62.72;96657.09;4981892;28;20086;-66
2022/04/18 03:18:49;;;;;;;7.97;3.70;;;;;;;3.67;61.62;96660.41;4986209;28;20031;-66
2022/04/18 03:21:16;;;;;;;4.80;3.22;;;;;;;3.61;62.49;96655.16;4981002;28;20601;-66
2022/04/18 03:23:44;;;;;;;4.75;3.63;;;;;;;3.48;63.31;96653.44;4978726;28;20081;-66
2022/04/18 03:26:10;;;;;;;6.05;3.53;;;;;;;3.50;62.70;96662.03;4983083;28;20030;-66
2022/04/18 03:28:35;;;;;;;4.15;3.00;;;;;;;3.47;62.54;96654.56;4991237;28;20027;-66
2022/04/18 03:31:00;;;;;;;7.00;3.60;;;;;;;3.39;63.63;96658.88;4975358;28;20424;-66
2022/04/18 03:33:26;;;;;;;5.57;3.47;;;;;;;3.33;63.66;96664.78;4972209;28;20039;-66
2022/04/18 03:41:19;;;;;;;5.82;3.58;;;;;;;3.18;64.10;96655.22;4973703;28;20448;-65
2022/04/18 03:43:45;;;;;;;5.10;3.40;;;;;;;3.22;64.04;96656.19;4979483;28;20162;-66
2022/04/18 03:46:10;;;;;;;9.50;4.30;;;;;;;3.30;63.74;96652.69;4986749;28;20053;-66
2022/04/18 03:48:35;;;;;;;4.95;3.08;;;;;;;3.17;65.31;96656.34;4975602;28;20074;-66
2022/04/18 03:51:01;;;;;;;5.60;3.08;;;;;;;3.12;64.75;96656.53;4970054;28;20159;-66
2022/04/18 03:53:26;;;;;;;5.22;3.42;;;;;;;3.12;64.99;96653.81;4968750;28;20102;-65
2022/04/18 03:55:52;;;;;;;6.93;3.33;;;;;;;3.11;65.04;96658.41;4970976;28;20093;-65
2022/04/18 03:58:17;;;;;;;5.70;3.80;;;;;;;2.99;65.98;96660.94;4975110;28;20058;-66
2022/04/18 04:00:43;;;;;;;5.35;3.72;;;;;;;2.97;65.78;96657.78;4975263;28;20039;-66
2022/04/18 04:03:09;;;;;;;6.55;4.22;;;;;;;2.97;66.23;96657.78;4974119;28;20070;-65
2022/04/18 04:05:35;;;;;;;5.78;3.75;;;;;;;2.95;66.23;96657.31;4974962;28;20042;-66
2022/04/18 04:08:00;;;;;;;5.25;3.25;;;;;;;2.92;66.72;96661.44;4974440;28;20034;-66
2022/04/18 04:10:26;;;;;;;5.40;3.97;;;;;;;2.94;66.62;96656.50;4972970;28;20538;-66
2022/04/18 04:12:52;;;;;;;8.27;3.50;;;;;;;2.98;66.47;96654.75;4974694;28;20037;-66
2022/04/18 04:15:17;;;;;;;9.25;3.50;;;;;;;2.96;66.58;96659.69;4974165;28;20415;-67
2022/04/18 04:17:42;;;;;;;6.03;3.50;;;;;;;2.98;66.61;96657.47;4975445;28;20114;-65
2022/04/18 04:20:08;;;;;;;6.28;3.90;;;;;;;2.86;66.46;96660.81;4958761;28;20052;-66
2022/04/18 04:22:34;;;;;;;6.13;3.60;;;;;;;2.90;66.44;96657.47;4976293;28;20612;-65
2022/04/18 04:25:00;;;;;;;6.40;4.20;;;;;;;3.00;66.00;96666.06;4975590;28;20027;-66
2022/04/18 04:27:26;;;;;;;5.30;3.55;;;;;;;2.98;66.17;96670.19;4975524;28;20069;-65
2022/04/18 04:29:51;;;;;;;6.18;4.00;;;;;;;2.98;65.50;96668.28;4973456;28;20046;-64
2022/04/18 04:32:16;;;;;;;5.65;3.20;;;;;;;3.00;65.65;96665.25;4975071;28;20113;-65
2022/04/18 04:34:42;;;;;;;6.88;3.60;;;;;;;3.00;66.06;96673.38;4974042;28;20041;-65
2022/04/18 04:37:08;;;;;;;5.63;3.70;;;;;;;2.96;66.28;96667.03;4974283;28;20538;-65
2022/04/18 04:39:33;;;;;;;5.88;3.50;;;;;;;2.95;66.56;96678.94;4973267;28;20042;-65
2022/04/18 04:41:59;;;;;;;7.13;4.20;;;;;;;2.94;66.27;96675.44;4975009;28;20041;-65
2022/04/18 04:44:24;;;;;;;4.63;3.63;;;;;;;2.96;66.33;96681.34;4972819;28;20101;-65
2022/04/18 04:46:50;;;;;;;4.95;3.55;;;;;;;2.98;66.09;96675.63;4974145;28;20105;-65
2022/04/18 04:49:16;;;;;;;6.07;3.97;;;;;;;3.02;66.14;96668.44;4974183;28;20030;-65
2022/04/18 04:51:42;;;;;;;4.85;3.78;;;;;;;3.01;66.18;96672.28;4984088;28;20078;-65
2022/04/18 04:54:08;;;;;;;5.88;3.70;;;;;;;3.07;66.27;96668.28;4972539;28;20447;-65
2022/04/18 04:56:33;;;;;;;7.50;3.78;;;;;;;3.15;66.26;96675.63;4971138;28;20048;-65
2022/04/18 04:58:59;;;;;;;5.57;3.42;;;;;;;3.17;65.43;96678.00;4971303;28;20453;-66
2022/04/18 05:01:25;;;;;;;6.25;4.18;;;;;;;3.15;65.50;96675.63;4974556;28;20515;-66
2022/04/18 05:03:51;;;;;;;5.35;3.58;;;;;;;3.21;65.54;96677.03;4974419;28;20049;-65
2022/04/18 05:06:16;;;;;;;6.53;3.58;;;;;;;3.23;65.51;96682.16;4988853;28;20034;-66
2022/04/18 05:08:42;;;;;;;7.80;4.45;;;;;;;3.26;65.45;96684.22;4973858;28;20551;-65
2022/04/18 05:11:07;;;;;;;10.65;4.07;;;;;;;3.60;64.62;96683.38;4974478;28;20679;-65
2022/04/18 05:13:33;;;;;;;5.57;3.47;;;;;;;4.28;61.90;96687.31;4973497;28;20039;-65
2022/04/18 05:15:58;;;;;;;4.63;3.17;;;;;;;4.59;60.67;96684.28;4973451;28;20046;-65
2022/04/18 05:18:23;;;;;;;4.43;3.35;;;;;;;4.94;58.61;96690.28;4973495;28;20104;-65
2022/04/18 05:20:49;;;;;;;6.13;2.80;;;;;;;5.51;57.16;96686.16;4972371;28;20023;-66
2022/04/18 05:23:21;;;;;;;5.15;3.10;;;;;;;5.97;55.48;96688.94;4977865;28;20030;-66
2022/04/18 05:25:46;;;;;;;5.30;3.30;;;;;;;5.94;54.90;96693.09;4974064;28;20502;-66
2022/04/18 05:28:12;;;;;;;6.55;3.40;;;;;;;6.43;53.88;96683.44;4975211;28;20031;-66
2022/04/18 05:30:37;;;;;;;5.93;2.70;;;;;;;6.49;54.45;96682.06;4972993;28;20038;-66
2022/04/18 05:33:03;;;;;;;4.40;2.88;;;;;;;6.52;52.88;96681.41;4973841;28;20037;-65
2022/04/18 05:35:29;;;;;;;5.78;3.08;;;;;;;6.91;51.22;96691.91;4971080;28;20122;-66
2022/04/18 05:37:54;;;;;;;6.45;3.17;;;;;;;6.57;53.65;96689.34;4973371;28;20113;-66
2022/04/18 05:40:20;;;;;;;4.68;2.70;;;;;;;7.99;49.76;96682.88;4970841;28;20047;-66
2022/04/18 05:42:46;;;;;;;5.50;2.55;;;;;;;7.30;50.92;96686.84;4973930;28;20026;-66
2022/04/18 05:45:11;;;;;;;5.32;2.97;;;;;;;7.05;51.43;96695.06;4973852;28;20534;-66
2022/04/18 05:47:37;;;;;;;8.32;3.53;;;;;;;7.06;51.85;96692.00;4973314;28;20034;-65
2022/04/18 05:50:04;;;;;;;7.60;2.90;;;;;;;6.45;53.25;96700.22;4974135;28;20030;-66
2022/04/18 05:52:29;;;;;;;4.85;3.30;;;;;;;6.78;52.84;96694.66;4973899;28;20035;-66
2022/04/18 05:54:55;;;;;;;4.85;2.88;;;;;;;6.91;52.73;96697.34;4980944;28;20038;-66
2022/04/18 05:57:21;;;;;;;4.78;2.60;;;;;;;7.52;51.19;96712.75;4978385;28;20030;-66
2022/04/18 05:59:47;;;;;;;6.45;3.67;;;;;;;8.27;49.72;96698.41;4977224;28;20035;-66
2022/04/18 06:02:13;;;;;;;4.05;2.70;;;;;;;8.49;48.71;96701.69;4969926;28;20057;-66
2022/04/18 06:04:39;;;;;;;4.30;2.22;;;;;;;11.64;43.49;96698.44;4971778;28;20522;-66
2022/04/18 06:07:05;;;;;;;6.55;2.50;;;;;;;10.75;43.37;96699.94;4970944;28;20126;-67
2022/04/18 06:09:31;;;;;;;9.45;2.25;;;;;;;9.71;45.09;96698.91;4971133;28;20111;-66
2022/04/18 06:11:57;;;;;;;4.30;2.75;;;;;;;8.66;46.29;96698.63;4974313;28;20106;-66
2022/04/18 06:14:22;;;;;;;7.47;2.42;;;;;;;9.54;43.78;96697.38;4963930;28;20054;-66
2022/04/18 06:16:47;;;;;;;5.00;2.63;;;;;;;9.38;45.18;96694.72;4962660;28;20521;-67
2022/04/18 06:19:13;;;;;;;4.00;2.63;;;;;;;8.87;47.15;96694.78;4975366;28;20435;-67
2022/04/18 06:21:40;;;;;;;7.07;3.13;;;;;;;7.97;49.43;96696.06;4977894;28;20039;-66
2022/04/18 06:24:05;;;;;;;5.95;3.35;;;;;;;8.52;47.63;96696.31;4971944;28;20050;-65
2022/04/18 06:26:31;;;;;;;6.03;2.80;;;;;;;8.39;48.47;96695.59;4973999;28;20420;-65
2022/04/18 06:28:59;;;;;;;4.95;3.05;;;;;;;8.34;47.91;96686.88;4970148;28;20506;-66
2022/04/18 06:31:25;;;;;;;4.80;2.83;;;;;;;8.78;48.11;96684.03;4971879;28;20396;-65
2022/04/18 06:33:51;;;;;;;5.20;2.90;;;;;;;8.55;49.38;96689.34;4973090;28;20054;-66
2022/04/18 06:36:16;;;;;;;6.13;4.45;;;;;;;9.86;45.58;96689.03;4972295;28;20031;-66
2022/04/18 06:38:41;;;;;;;4.85;3.45;;;;;;;10.38;43.65;96689.59;4971578;28;20058;-65
2022/04/18 06:41:09;;;;;;;5.32;3.33;;;;;;;8.28;47.80;96688.28;4972476;28;20057;-65
2022/04/18 06:43:35;;;;;;;7.45;3.65;;;;;;;8.58;47.16;96688.66;4969707;28;20050;-65
2022/04/18 06:46:00;;;;;;;4.43;3.13;;;;;;;8.21;48.78;96692.41;4970599;28;20038;-65
2022/04/18 06:48:25;;;;;;;3.85;2.90;;;;;;;8.07;49.33;96691.25;4972733;28;20090;-65
2022/04/18 06:50:51;;;;;;;5.60;3.35;;;;;;;8.07;49.14;96691.25;4972830;28;20060;-65
2022/04/18 06:53:16;;;;;;;5.60;2.97;;;;;;;8.17;48.60;96691.53;4971520;28;20408;-66
2022/04/18 06:58:45;;;;;;;8.85;5.78;;;;;;;9.77;46.12;96692.75;4926318;29;20108;-65
2022/04/18 07:01:11;;;;;;;4.60;3.22;;;;;;;9.94;44.07;96693.50;4920038;29;20157;-66
2022/04/18 07:03:36;;;;;;;6.13;3.78;;;;;;;10.12;43.62;96691.88;4941201;28;20089;-65
2022/04/18 07:06:02;;;;;;;4.32;2.92;;;;;;;9.45;45.52;96694.06;4971651;28;20097;-64
2022/04/18 07:08:27;;;;;;;5.20;2.58;;;;;;;10.05;44.92;96688.22;4971819;28;20123;-67
2022/04/18 07:10:53;;;;;;;5.38;4.10;;;;;;;10.73;43.39;96691.31;4972251;28;20106;-67
2022/04/18 07:13:18;;;;;;;6.57;4.45;;;;;;;10.54;42.70;96695.72;4972368;28;20031;-67
2022/04/18 07:15:43;;;;;;;6.70;4.47;;;;;;;10.37;44.06;96696.22;4971507;28;20035;-68
2022/04/18 07:18:09;;;;;;;4.88;3.15;;;;;;;9.40;45.92;96705.28;4972677;28;20066;-67
2022/04/18 07:20:34;;;;;;;6.75;4.43;;;;;;;9.76;45.63;96695.88;4977858;28;20110;-67
2022/04/18 07:23:00;;;;;;;23.45;14.95;;;;;;;9.64;44.82;96693.28;4977403;28;20030;-67
2022/04/18 07:25:25;;;;;;;6.10;4.85;;;;;;;10.40;43.43;96696.28;4982665;28;20030;-67
2022/04/18 07:27:51;;;;;;;5.47;3.88;;;;;;;10.78;42.00;96697.28;4986909;28;20022;-66
2022/04/18 07:30:16;;;;;;;5.25;2.67;;;;;;;13.11;37.80;96690.81;4971941;28;20058;-67
2022/04/18 07:32:43;;;;;;;9.82;5.28;;;;;;;13.20;37.67;96682.22;4971739;28;20039;-67
2022/04/18 07:35:11;;;;;;;5.57;2.88;;;;;;;12.71;38.79;96681.50;4972480;28;20105;-67
2022/04/18 07:37:37;;;;;;;5.97;2.42;;;;;;;10.02;42.14;96692.44;4977095;28;20027;-66
2022/04/18 07:40:03;;;;;;;3.92;2.05;;;;;;;9.77;44.46;96689.25;4956574;28;20057;-66
2022/04/18 07:42:28;;;;;;;3.80;2.53;;;;;;;12.25;40.67;96687.38;4971676;28;20432;-67
2022/04/18 07:44:54;;;;;;;8.05;3.00;;;;;;;12.13;40.75;96691.16;4971819;28;20117;-67
2022/04/18 07:47:20;;;;;;;4.60;3.22;;;;;;;15.20;35.65;96700.38;4971188;28;20069;-67
2022/04/18 07:49:45;;;;;;;6.22;2.78;;;;;;;12.78;37.76;96694.50;4986680;28;20070;-66
2022/04/18 07:52:12;;;;;;;5.60;2.67;;;;;;;12.08;39.66;96694.25;4970566;28;20042;-66
2022/04/18 07:54:38;;;;;;;5.18;2.95;;;;;;;11.63;39.85;96691.41;4976574;28;20035;-66
2022/04/18 07:57:04;;;;;;;5.90;2.65;;;;;;;11.83;40.25;96686.53;4970884;28;20066;-66
2022/04/18 07:59:31;;;;;;;4.88;2.63;;;;;;;10.55;43.12;96691.81;4971161;28;20031;-67
2022/04/18 08:01:56;;;;;;;4.68;2.70;;;;;;;12.08;41.01;96680.53;4971364;28;20105;-66
2022/04/18 08:04:22;;;;;;;14.93;7.22;;;;;;;12.01;41.38;96681.25;4972264;28;20027;-67
2022/04/18 08:06:47;;;;;;;6.03;3.05;;;;;;;10.98;43.66;96675.25;4972222;28;20030;-66
2022/04/18 08:09:13;;;;;;;3.92;2.53;;;;;;;10.20;42.74;96687.28;4981607;28;20526;-67
2022/04/18 08:11:38;;;;;;;6.88;2.58;;;;;;;11.01;41.98;96680.00;4987721;28;20090;-68
2022/04/18 08:14:03;;;;;;;5.93;3.42;;;;;;;11.02;41.85;96676.09;4984062;28;20042;-67
2022/04/18 08:16:29;;;;;;;4.88;3.13;;;;;;;11.39;41.60;96676.19;4977223;28;20076;-67
2022/04/18 08:18:55;;;;;;;6.38;2.72;;;;;;;11.58;42.05;96686.25;4971883;28;20039;-67
2022/04/18 08:21:20;;;;;;;3.90;2.47;;;;;;;12.53;38.43;96677.81;4973739;28;20035;-67
2022/04/18 08:23:48;;;;;;;4.57;2.40;;;;;;;13.30;38.34;96681.47;4971296;28;20427;-68
2022/04/18 08:26:14;;;;;;;6.13;2.22;;;;;;;13.91;36.13;96680.97;4971901;28;20031;-67
2022/04/18 08:28:40;;;;;;;3.70;2.17;;;;;;;11.71;40.18;96686.78;4972869;28;20034;-67
2022/04/18 08:31:07;;;;;;;5.35;2.80;;;;;;;11.65;41.72;96669.09;4970245;28;20036;-67
2022/04/18 08:33:33;;;;;;;5.13;3.30;;;;;;;11.41;42.02;96678.56;4972030;28;20046;-67
2022/04/18 08:35:59;;;;;;;4.75;2.45;;;;;;;10.84;43.06;96679.38;4970630;28;20031;-67
2022/04/18 08:38:26;;;;;;;5.07;2.38;;;;;;;10.97;41.22;96674.47;4971338;28;20031;-67
2022/04/18 08:40:57;;;;;;;6.63;2.50;;;;;;;11.79;40.21;96668.44;4970476;28;20031;-67
2022/04/18 08:43:22;;;;;;;3.25;1.90;;;;;;;13.82;37.28;96666.78;4972618;28;20373;-67
2022/04/18 08:45:49;;;;;;;3.42;2.10;;;;;;;15.56;35.54;96669.13;4974090;28;20097;-67
2022/04/18 08:53:46;;;;;;;3.83;2.15;;;;;;;16.12;32.95;96659.00;4974898;28;20026;-66
2022/04/18 08:56:11;;;;;;;8.43;3.55;;;;;;;18.78;31.56;96669.13;4972765;28;20396;-67
2022/04/18 08:58:37;;;;;;;5.03;2.88;;;;;;;18.61;31.52;96665.44;4975298;28;20506;-67
2022/04/18 09:01:04;;;;;;;6.22;2.50;;;;;;;19.27;30.67;96667.50;4974597;28;20026;-67
2022/04/18 09:03:29;;;;;;;6.05;2.50;;;;;;;20.30;28.55;96665.81;4973437;28;20054;-66
2022/04/18 09:06:13;;;;;;;3.45;2.40;;;;;;;17.50;32.70;96662.97;4974262;28;20376;-67
2022/04/18 09:08:54;;;;;;;4.05;2.25;;;;;;;17.86;32.37;96667.28;4974681;28;20110;-66
2022/04/18 09:11:40;;;;;;;3.35;2.53;;;;;;;17.48;33.75;96667.34;4974908;28;20574;-65
2022/04/18 09:14:07;;;;;;;5.35;2.50;;;;;;;17.24;32.29;96664.44;4974388;28;20480;-67
2022/04/18 09:16:33;;;;;;;6.05;2.60;;;;;;;17.49;34.17;96657.84;4971977;28;20121;-68
2022/04/18 09:19:09;;;;;;;4.43;2.15;;;;;;;17.22;33.70;96657.75;4974465;28;20034;-68
2022/04/18 09:21:35;;;;;;;4.07;2.00;;;;;;;17.88;32.39;96649.06;4973369;28;20035;-67
2022/04/18 09:24:00;;;;;;;3.40;2.05;;;;;;;16.82;35.05;96647.03;4973523;28;20050;-67
2022/04/18 09:26:26;;;;;;;5.22;2.40;;;;;;;17.00;34.08;96652.44;4971917;28;20067;-67
2022/04/18 09:29:02;;;;;;;5.22;2.63;;;;;;;17.55;34.05;96645.88;4974513;28;20033;-67
2022/04/18 09:31:38;;;;;;;5.70;3.13;;;;;;;16.44;36.02;96653.25;4977863;28;20031;-68
2022/04/18 09:34:04;;;;;;;5.97;2.80;;;;;;;16.42;36.65;96641.84;4973997;28;20034;-67
2022/04/18 09:36:29;;;;;;;4.32;2.55;;;;;;;15.25;38.81;96635.69;4973243;28;20046;-69
2022/04/18 09:38:56;;;;;;;6.75;2.90;;;;;;;15.79;37.09;96643.78;4974176;28;20031;-67
2022/04/18 09:41:27;;;;;;;4.88;3.00;;;;;;;16.19;36.69;96634.09;4973332;28;20046;-67
2022/04/18 09:43:55;;;;;;;3.63;2.60;;;;;;;16.53;35.84;96633.44;4973670;28;20027;-67
2022/04/18 09:46:21;;;;;;;5.40;3.28;;;;;;;16.11;36.54;96631.78;4974482;28;20113;-67
2022/04/18 09:48:48;;;;;;;4.03;2.70;;;;;;;16.07;38.01;96636.56;4981126;28;20467;-66
2022/04/18 09:51:29;;;;;;;7.40;3.75;;;;;;;16.42;35.92;96628.00;4979906;28;20038;-67
2022/04/18 09:53:57;;;;;;;4.63;2.78;;;;;;;16.46;35.70;96627.97;4978593;28;20045;-67
2022/04/18 09:56:23;;;;;;;7.03;3.55;;;;;;;17.07;35.67;96621.13;4974798;28;20070;-67
2022/04/18 09:58:49;;;;;;;7.40;3.20;;;;;;;16.95;34.92;96625.19;4972378;28;20042;-66
2022/04/18 10:01:19;;;;;;;5.45;3.13;;;;;;;15.97;35.05;96616.88;4956370;28;20061;-66
2022/04/18 10:03:46;;;;;;;4.78;3.20;;;;;;;16.50;35.66;96620.44;4973368;28;20046;-66
2022/04/18 10:06:12;;;;;;;4.30;2.80;;;;;;;16.33;35.64;96627.69;4972912;28;20369;-66
2022/04/18 10:08:38;;;;;;;4.18;2.42;;;;;;;17.52;33.18;96624.56;4974216;28;20153;-66
2022/04/18 10:11:06;;;;;;;4.75;2.75;;;;;;;17.13;34.38;96616.72;4974765;28;20096;-65
2022/04/18 10:13:32;;;;;;;4.85;2.65;;;;;;;17.46;33.38;96617.13;4976017;28;20039;-66
2022/04/18 10:15:59;;;;;;;3.20;2.33;;;;;;;17.19;33.54;96612.28;4974900;28;20547;-68
2022/04/18 10:18:25;;;;;;;3.40;2.53;;;;;;;17.12;34.12;96612.38;4973804;28;20034;-65
2022/04/18 10:21:06;;;;;;;3.85;2.58;;;;;;;17.32;33.70;96609.78;4973025;28;20061;-66
2022/04/18 10:24:03;;;;;;;4.90;2.60;;;;;;;17.38;33.98;96605.38;4970154;28;20743;-65
2022/04/18 10:26:51;;;;;;;4.75;2.80;;;;;;;16.97;34.64;96601.44;4968941;28;20049;-66
2022/04/18 10:29:25;;;;;;;4.38;3.33;;;;;;;17.32;34.22;96604.22;4954393;28;20046;-65
2022/04/18 10:31:53;;;;;;;5.07;2.83;;;;;;;17.44;33.46;96606.47;4963366;28;20405;-66
2022/04/18 10:34:23;;;;;;;4.38;2.80;;;;;;;17.28;34.25;96601.50;4957011;28;20042;-66
2022/04/18 10:36:52;;;;;;;;;;;;;;;16.82;33.96;96600.00;4962873;28;20443;-68
2022/04/18 10:39:17;;;;;;;6.55;3.03;;;;;;;17.33;33.55;96595.53;4954698;28;19922;-65
2022/04/18 10:41:45;;;;;;;5.97;3.05;;;;;;;17.32;32.80;96591.19;4976982;28;20555;-66
2022/04/18 10:44:12;;;;;;;3.53;2.33;;;;;;;17.43;33.02;96587.50;4963577;28;20114;-65
2022/04/18 10:46:56;;;;;;;4.65;2.85;;;;;;;17.63;32.53;96576.56;4950797;28;20043;-66
2022/04/18 10:49:31;;;;;;;4.60;2.40;;;;;;;17.61;32.23;96577.00;4958045;28;20082;-66
2022/04/18 10:51:57;;;;;;;6.32;2.80;;;;;;;16.81;34.07;96573.53;4953978;28;20046;-66
2022/04/18 10:54:25;;;;;;;4.20;2.88;;;;;;;18.13;33.23;96578.63;4957738;28;20061;-66
2022/04/18 10:57:16;;;;;;;5.07;3.00;;;;;;;18.62;31.92;96570.72;4961826;28;20050;-66
2022/04/18 10:59:45;;;;;;;7.65;2.50;;;;;;;18.14;32.42;96567.13;4962277;28;20133;-66
2022/04/18 11:02:37;;;;;;;6.85;4.00;;;;;;;17.77;32.37;96566.09;4956076;28;20039;-65
2022/04/18 11:05:03;;;;;;;3.45;2.40;;;;;;;16.54;35.47;96565.13;4965694;28;20525;-66
2022/04/18 11:07:42;;;;;;;3.17;2.20;;;;;;;17.06;34.24;96564.22;4963490;28;20039;-67
2022/04/18 11:10:21;;;;;;;3.67;2.40;;;;;;;16.50;35.67;96561.59;4970045;28;20045;-66
2022/04/18 11:12:46;;;;;;;4.00;2.40;;;;;;;16.97;34.73;96562.72;4962315;28;20435;-66
2022/04/18 11:15:12;;;;;;;4.65;2.67;;;;;;;16.34;35.13;96556.59;4952669;28;20039;-66
2022/04/18 11:17:39;;;;;;;4.20;2.92;;;;;;;15.49;36.71;96560.31;4961752;28;20706;-66
2022/04/18 11:20:26;;;;;;;4.05;2.75;;;;;;;15.44;37.53;96552.44;4956826;28;20046;-64
2022/04/18 11:23:26;;;;;;;5.13;3.05;;;;;;;15.57;37.49;96558.28;4956319;28;20046;-67
2022/04/18 11:25:56;;;;;;;5.25;2.95;;;;;;;15.20;37.47;96559.66;4958636;28;20562;-67
2022/04/18 11:28:23;;;;;;;5.95;3.03;;;;;;;15.02;37.17;96553.44;4956695;28;20141;-67
2022/04/18 11:30:49;;;;;;;6.85;2.47;;;;;;;15.19;37.81;96549.03;4961243;28;20137;-66
2022/04/18 11:33:15;;;;;;;4.18;2.60;;;;;;;15.23;37.59;96542.31;4955032;28;20133;-67
2022/04/18 11:35:40;;;;;;;5.93;3.25;;;;;;;15.39;37.74;96533.53;4958697;28;20197;-67
2022/04/18 11:38:08;;;;;;;5.30;2.88;;;;;;;15.94;36.08;96537.59;4957105;28;20046;-67
2022/04/18 11:40:38;;;;;;;6.63;3.03;;;;;;;16.38;36.39;96533.25;4960443;28;20039;-67
2022/04/18 11:43:11;;;;;;;3.25;2.10;;;;;;;16.50;35.70;96540.25;4941712;28;20035;-65
2022/04/18 11:45:37;;;;;;;6.28;3.00;;;;;;;16.57;34.89;96540.19;4961075;28;20042;-66
2022/04/18 11:48:04;;;;;;;4.35;2.33;;;;;;;16.40;36.04;96528.13;4957924;28;20507;-64
2022/04/18 11:50:31;;;;;;;5.43;3.10;;;;;;;15.08;36.50;96538.81;4968199;28;20122;-65
2022/04/18 11:53:07;;;;;;;4.15;2.38;;;;;;;14.71;38.47;96533.81;4962005;28;20603;-66
2022/04/18 11:55:42;;;;;;;4.78;2.55;;;;;;;15.34;39.19;96522.94;4960087;28;20038;-65
2022/04/18 11:58:11;;;;;;;4.65;2.72;;;;;;;16.10;36.45;96520.50;4956747;28;20047;-65